Bissell, Connecticut
Current Conditions -  °F | °C
As of 9:53 AM on Thursday 18 Dec 2014 (Local Time) from KHFD Reporting Station
Overcast Overcast  
Wind Chill: 31°   Ceiling: 3600
Heat Index: 39°   Visibility: 10mi
Dew Point: 25°   Wind: 15mph
Humidity: 57%   Direction: 290°WNW
Pressure: 29.91"   Gusts: 24mph
Location:  41.8353°N, 72.5722°W
Report Text: KHFD 181453Z 29013G21KT 10SM OVC036 04/M04 A2991 RMK AO2 SLP128 T00391039 53017
Loading
Personal Weather Stations






























Interactive Weather Map New forecast layout! Learn more

10-Day Weather Forecast

Advertisements
Track Severe Weather on mobile